createdAt,value
2018-03-26T00:00:57.136Z,91.10
2018-03-26T00:01:57.010Z,91.68
2018-03-26T00:02:57.014Z,92.61
2018-03-26T00:03:57.531Z,92.32
2018-03-26T00:04:56.968Z,92.51
2018-03-26T00:05:57.556Z,93.29
2018-03-26T00:06:56.921Z,92.80
2018-03-26T00:07:56.893Z,93.29
2018-03-26T00:08:56.887Z,94.07
2018-03-26T00:09:56.881Z,94.26
2018-03-26T00:10:56.910Z,94.55
2018-03-26T00:11:56.784Z,94.26
2018-03-26T00:12:56.750Z,94.90
2018-03-26T00:13:56.856Z,95.09
2018-03-26T00:14:56.704Z,94.99
2018-03-26T00:15:56.794Z,95.48
2018-03-26T00:16:57.183Z,95.77
2018-03-26T00:17:56.710Z,95.92
2018-03-26T00:18:56.620Z,96.64
2018-03-26T00:19:56.610Z,96.74
2018-03-26T00:20:56.729Z,97.42
2018-03-26T00:21:56.548Z,96.74
2018-03-26T00:22:56.591Z,97.47
2018-03-26T00:23:56.501Z,97.86
2018-03-26T00:24:56.590Z,98.15
2018-03-26T00:25:56.554Z,98.88
2018-03-26T00:26:56.447Z,98.15
2018-03-26T00:27:56.395Z,98.63
2018-03-26T00:28:56.414Z,99.12
2018-03-26T00:29:56.383Z,99.70
2018-03-26T00:30:56.812Z,99.99
2018-03-26T00:31:57.040Z,99.99
2018-03-26T00:32:56.315Z,99.90
2018-03-26T00:33:56.283Z,99.99
2018-03-26T00:34:56.284Z,99.90
2018-03-26T00:35:56.242Z,99.90
2018-03-26T00:36:56.188Z,99.99
2018-03-26T00:37:56.247Z,99.99
2018-03-26T00:38:56.184Z,99.90
2018-03-26T00:39:56.166Z,99.80
2018-03-26T00:40:56.138Z,99.99
2018-03-26T00:41:56.083Z,99.90
2018-03-26T00:42:56.139Z,99.99
2018-03-26T00:43:56.014Z,99.99
2018-03-26T00:44:56.023Z,99.99
2018-03-26T00:45:55.983Z,99.99
2018-03-26T00:46:55.966Z,99.99
2018-03-26T00:47:56.047Z,99.99
2018-03-26T00:48:55.968Z,99.99
2018-03-26T00:49:55.902Z,99.99
2018-03-26T00:50:55.856Z,99.99
2018-03-26T00:51:55.826Z,99.99
2018-03-26T00:52:55.904Z,99.99
2018-03-26T00:53:55.849Z,99.99
2018-03-26T00:54:55.748Z,99.99
2018-03-26T00:55:56.267Z,99.99
2018-03-26T00:56:55.732Z,99.99
2018-03-26T00:57:55.781Z,99.99
2018-03-26T00:58:55.654Z,99.99
2018-03-26T00:59:55.628Z,99.99
2018-03-26T01:00:56.161Z,99.99
2018-03-26T01:01:55.581Z,99.99
2018-03-26T01:02:55.660Z,99.99
2018-03-26T01:03:55.531Z,99.99
2018-03-26T01:04:55.600Z,99.99
2018-03-26T01:05:55.483Z,99.99
2018-03-26T01:06:55.457Z,99.99
2018-03-26T01:07:55.434Z,99.99
2018-03-26T01:08:56.069Z,99.99
2018-03-26T01:09:55.378Z,99.99
2018-03-26T01:10:55.364Z,99.99
2018-03-26T01:11:55.319Z,99.99
2018-03-26T01:12:55.345Z,99.99
2018-03-26T01:13:55.295Z,99.99
2018-03-26T01:14:55.382Z,99.99
2018-03-26T01:15:55.236Z,99.99
2018-03-26T01:16:55.213Z,99.99
2018-03-26T01:17:55.188Z,99.99
2018-03-26T01:18:55.169Z,99.99
2018-03-26T01:19:55.230Z,99.99
2018-03-26T01:20:55.675Z,99.99
2018-03-26T01:21:55.141Z,99.99
2018-03-26T01:22:55.096Z,99.99
2018-03-26T01:23:55.030Z,99.99
2018-03-26T01:24:55.120Z,99.99
2018-03-26T01:25:54.989Z,99.99
2018-03-26T01:26:54.982Z,99.99
2018-03-26T01:27:54.945Z,99.99
2018-03-26T01:28:54.923Z,99.99
2018-03-26T01:29:54.972Z,99.99
2018-03-26T01:30:54.869Z,99.99
2018-03-26T01:31:54.932Z,99.99
2018-03-26T01:32:54.829Z,99.99
2018-03-26T01:33:54.788Z,99.99
2018-03-26T01:34:54.870Z,99.99
2018-03-26T01:35:54.765Z,99.99
2018-03-26T01:36:54.815Z,99.99
2018-03-26T01:37:55.189Z,99.99
2018-03-26T01:38:54.736Z,99.99
2018-03-26T01:39:54.756Z,99.99
2018-03-26T01:40:54.647Z,99.99
2018-03-26T01:41:55.126Z,99.99
2018-03-26T01:42:54.582Z,99.99
2018-03-26T01:43:55.071Z,99.99
2018-03-26T01:44:54.605Z,99.99
2018-03-26T01:45:54.611Z,99.99
2018-03-26T01:46:54.465Z,99.99
2018-03-26T01:47:54.434Z,99.99
2018-03-26T01:48:54.421Z,99.99
2018-03-26T01:49:54.555Z,99.99
2018-03-26T01:50:54.426Z,99.99
2018-03-26T01:51:54.493Z,99.99
2018-03-26T01:52:54.845Z,99.99
2018-03-26T01:53:54.368Z,99.99
2018-03-26T01:54:54.327Z,99.99
2018-03-26T01:55:54.778Z,99.99
2018-03-26T01:56:54.212Z,99.99
2018-03-26T01:57:54.297Z,99.99
2018-03-26T01:58:54.157Z,99.99
2018-03-26T01:59:54.694Z,99.99
2018-03-26T02:00:54.664Z,99.99
2018-03-26T02:01:54.093Z,99.99
2018-03-26T02:02:54.184Z,99.99
2018-03-26T02:03:54.127Z,99.99
2018-03-26T02:04:54.011Z,99.99
2018-03-26T02:05:54.520Z,99.99
2018-03-26T02:06:54.408Z,99.99
2018-03-26T02:07:54.043Z,99.99
2018-03-26T02:08:53.911Z,99.99
2018-03-26T02:09:53.890Z,99.99
2018-03-26T02:10:53.854Z,99.99
2018-03-26T02:11:53.918Z,99.99
2018-03-26T02:12:54.452Z,99.99
2018-03-26T02:13:53.790Z,99.99
2018-03-26T02:14:53.766Z,99.99
2018-03-26T02:15:54.268Z,99.99
2018-03-26T02:16:53.711Z,99.99
2018-03-26T02:17:53.722Z,99.99
2018-03-26T02:18:53.792Z,99.99
2018-03-26T02:19:54.223Z,99.99
2018-03-26T02:20:53.614Z,99.99
2018-03-26T02:21:53.655Z,99.99
2018-03-26T02:22:53.558Z,99.99
2018-03-26T02:23:53.584Z,99.99
2018-03-26T02:24:53.605Z,99.99
2018-03-26T02:25:53.484Z,99.99
2018-03-26T02:26:53.480Z,99.99
2018-03-26T02:27:53.956Z,99.99
2018-03-26T02:28:53.404Z,99.99
2018-03-26T02:29:53.373Z,99.99
2018-03-26T02:30:53.462Z,99.99
2018-03-26T02:31:53.542Z,99.99
2018-03-26T02:32:53.285Z,99.99
2018-03-26T02:33:53.272Z,99.99
2018-03-26T02:34:53.241Z,99.99
2018-03-26T02:35:53.923Z,99.99
2018-03-26T02:36:53.770Z,99.99
2018-03-26T02:37:53.709Z,99.99
2018-03-26T02:38:53.649Z,99.99
2018-03-26T02:39:53.649Z,99.99
2018-03-26T02:40:53.200Z,99.99
2018-03-26T02:41:53.053Z,99.99
2018-03-26T02:42:53.022Z,99.99
2018-03-26T02:43:53.020Z,99.99
2018-03-26T02:44:53.001Z,99.99
2018-03-26T02:45:53.190Z,99.99
2018-03-26T02:46:52.971Z,99.99
2018-03-26T02:47:52.910Z,99.99
2018-03-26T02:48:53.442Z,99.99
2018-03-26T02:49:53.409Z,99.99
2018-03-26T02:50:53.377Z,99.99
2018-03-26T02:51:52.837Z,99.99
2018-03-26T02:52:52.787Z,99.99
2018-03-26T02:53:53.291Z,99.99
2018-03-26T02:54:53.186Z,99.99
2018-03-26T02:55:53.311Z,99.99
2018-03-26T02:56:53.326Z,99.99
2018-03-26T02:57:52.648Z,99.99
2018-03-26T02:58:52.644Z,99.99
2018-03-26T02:59:52.658Z,99.99
2018-03-26T03:00:52.578Z,99.99
2018-03-26T03:01:53.206Z,99.99
2018-03-26T03:02:52.525Z,99.99
2018-03-26T03:03:52.496Z,99.99
2018-03-26T03:04:52.496Z,99.99
2018-03-26T03:05:52.996Z,99.99
2018-03-26T03:06:52.425Z,99.99
2018-03-26T03:07:52.774Z,99.99
2018-03-26T03:08:52.368Z,99.99
2018-03-26T03:09:52.887Z,99.99
2018-03-26T03:10:52.847Z,99.99
2018-03-26T03:11:52.290Z,99.99
2018-03-26T03:12:52.816Z,99.99
2018-03-26T03:13:52.354Z,99.99
2018-03-26T03:14:52.737Z,99.99
2018-03-26T03:15:52.746Z,99.99
2018-03-26T03:16:52.610Z,99.99
2018-03-26T03:17:52.689Z,99.99
2018-03-26T03:18:52.417Z,99.99
2018-03-26T03:19:52.078Z,99.99
2018-03-26T03:20:52.067Z,99.99
2018-03-26T03:21:52.558Z,99.99
2018-03-26T03:22:52.000Z,99.99
2018-03-26T03:23:52.629Z,99.99
2018-03-26T03:24:52.382Z,99.99
2018-03-26T03:25:52.360Z,99.99
2018-03-26T03:26:51.920Z,99.99
2018-03-26T03:27:51.886Z,99.99
2018-03-26T03:28:52.459Z,99.99
2018-03-26T03:29:51.946Z,99.99
2018-03-26T03:30:51.813Z,99.99
2018-03-26T03:31:51.886Z,99.99
2018-03-26T03:32:51.761Z,99.99
2018-03-26T03:33:51.713Z,99.99
2018-03-26T03:34:52.100Z,99.99
2018-03-26T03:35:51.652Z,99.99
2018-03-26T03:36:51.644Z,99.99
2018-03-26T03:37:52.173Z,99.99
2018-03-26T03:38:51.605Z,99.99
2018-03-26T03:39:51.692Z,99.99
2018-03-26T03:40:51.539Z,99.99
2018-03-26T03:41:51.569Z,99.99
2018-03-26T03:42:51.535Z,99.99
2018-03-26T03:43:51.448Z,99.99
2018-03-26T03:44:51.456Z,99.99
2018-03-26T03:45:51.506Z,99.99
2018-03-26T03:46:51.406Z,99.99
2018-03-26T03:47:51.374Z,99.99
2018-03-26T03:48:51.325Z,99.99
2018-03-26T03:49:51.365Z,99.99
2018-03-26T03:50:51.892Z,99.99
2018-03-26T03:51:51.376Z,99.99
2018-03-26T03:52:51.758Z,99.99
2018-03-26T03:54:51.168Z,99.99
2018-03-26T03:55:51.734Z,99.99
2018-03-26T03:56:51.208Z,99.99
2018-03-26T03:57:51.090Z,99.99
2018-03-26T03:58:51.589Z,99.99
2018-03-26T03:59:51.020Z,99.99
2018-03-26T04:00:51.013Z,99.99
2018-03-26T04:01:51.081Z,99.99
2018-03-26T04:02:50.939Z,99.99
2018-03-26T04:03:50.939Z,99.99
2018-03-26T04:04:50.891Z,99.99
2018-03-26T04:05:50.878Z,99.99
2018-03-26T04:06:50.881Z,99.99
2018-03-26T04:07:50.914Z,99.99
2018-03-26T04:08:50.798Z,99.99
2018-03-26T04:09:50.793Z,99.99
2018-03-26T04:10:50.764Z,99.99
2018-03-26T04:11:51.248Z,99.99
2018-03-26T04:12:50.788Z,99.99
2018-03-26T04:13:50.667Z,99.99
2018-03-26T04:14:50.614Z,99.99
2018-03-26T04:15:50.613Z,99.99
2018-03-26T04:16:50.577Z,99.99
2018-03-26T04:17:50.649Z,99.99
2018-03-26T04:18:50.529Z,99.99
2018-03-26T04:19:50.517Z,99.99
2018-03-26T04:20:50.468Z,99.99
2018-03-26T04:21:51.003Z,99.99
2018-03-26T04:22:50.426Z,99.99
2018-03-26T04:23:50.550Z,99.99
2018-03-26T04:24:50.348Z,99.99
2018-03-26T04:25:50.378Z,99.99
2018-03-26T04:26:50.321Z,99.99
2018-03-26T04:27:50.277Z,99.99
2018-03-26T04:28:50.266Z,99.99
2018-03-26T04:29:50.309Z,99.99
2018-03-26T04:30:50.190Z,99.99
2018-03-26T04:31:50.178Z,99.99
2018-03-26T04:32:50.138Z,99.99
2018-03-26T04:33:50.111Z,99.99
2018-03-26T04:34:50.257Z,99.99
2018-03-26T04:35:50.059Z,99.99
2018-03-26T04:36:50.031Z,99.99
2018-03-26T04:37:50.027Z,99.99
2018-03-26T04:38:49.998Z,99.99
2018-03-26T04:39:50.008Z,99.99
2018-03-26T04:40:50.042Z,99.99
2018-03-26T04:41:49.918Z,99.99
2018-03-26T04:42:49.862Z,99.99
2018-03-26T04:43:49.865Z,99.99
2018-03-26T04:44:49.831Z,99.99
2018-03-26T04:45:49.883Z,99.99
2018-03-26T04:46:49.780Z,99.99
2018-03-26T04:47:49.750Z,99.99
2018-03-26T04:48:49.705Z,99.99
2018-03-26T04:49:49.684Z,99.99
2018-03-26T04:50:49.768Z,99.99
2018-03-26T04:51:49.641Z,99.99
2018-03-26T04:52:49.609Z,99.99
2018-03-26T04:53:49.681Z,99.99
2018-03-26T04:54:49.552Z,99.99
2018-03-26T04:55:49.636Z,99.99
2018-03-26T04:56:49.505Z,99.99
2018-03-26T04:57:49.465Z,99.99
2018-03-26T04:58:49.470Z,99.99
2018-03-26T04:59:49.408Z,99.99
2018-03-26T05:00:49.404Z,99.99
2018-03-26T05:01:49.474Z,99.99
2018-03-26T05:02:49.344Z,99.99
2018-03-26T05:03:49.314Z,99.99
2018-03-26T05:04:49.310Z,99.99
2018-03-26T05:05:49.249Z,99.99
2018-03-26T05:06:49.219Z,99.99
2018-03-26T05:07:49.316Z,99.99
2018-03-26T05:08:49.180Z,99.99
2018-03-26T05:09:49.149Z,99.99
2018-03-26T05:10:49.143Z,99.99
2018-03-26T05:11:49.107Z,99.99
2018-03-26T05:12:49.120Z,99.99
2018-03-26T05:13:49.140Z,99.99
2018-03-26T05:14:49.097Z,99.99
2018-03-26T05:15:48.980Z,99.99
2018-03-26T05:16:48.952Z,99.99
2018-03-26T05:17:48.940Z,99.99
2018-03-26T05:18:49.017Z,99.99
2018-03-26T05:19:48.899Z,99.99
2018-03-26T05:20:48.858Z,99.99
2018-03-26T05:21:48.850Z,99.99
2018-03-26T05:22:48.842Z,99.99
2018-03-26T05:23:48.864Z,99.99
2018-03-26T05:24:48.754Z,99.99
2018-03-26T05:25:48.713Z,99.99
2018-03-26T05:26:48.709Z,99.99
2018-03-26T05:27:48.668Z,99.99
2018-03-26T05:28:48.741Z,99.99
2018-03-26T05:29:48.618Z,99.99
2018-03-26T05:30:48.629Z,99.99
2018-03-26T05:31:48.545Z,99.99
2018-03-26T05:32:48.532Z,99.99
2018-03-26T05:33:48.629Z,99.99
2018-03-26T05:34:48.554Z,99.99
2018-03-26T05:35:48.452Z,99.99
2018-03-26T05:36:48.432Z,99.99
2018-03-26T05:37:48.441Z,99.99
2018-03-26T05:38:48.357Z,99.99
2018-03-26T05:39:48.454Z,99.99
2018-03-26T05:40:48.341Z,99.99
2018-03-26T05:41:48.295Z,99.99
2018-03-26T05:42:48.334Z,99.99
2018-03-26T05:43:48.227Z,99.99
2018-03-26T05:44:48.325Z,99.99
2018-03-26T05:45:48.186Z,99.99
2018-03-26T05:46:48.155Z,99.99
2018-03-26T05:47:48.123Z,99.99
2018-03-26T05:48:48.184Z,99.99
2018-03-26T05:49:48.152Z,99.99
2018-03-26T05:50:48.151Z,99.99
2018-03-26T05:51:48.000Z,99.99
2018-03-26T05:52:47.995Z,99.99
2018-03-26T05:53:48.006Z,99.99
2018-03-26T05:54:47.937Z,99.99
2018-03-26T05:55:48.023Z,99.99
2018-03-26T05:56:47.879Z,99.99
2018-03-26T05:57:47.878Z,99.99
2018-03-26T05:58:47.812Z,99.99
2018-03-26T05:59:47.828Z,99.99
2018-03-26T06:00:47.886Z,99.99
2018-03-26T06:01:47.780Z,99.99
2018-03-26T06:02:47.713Z,99.99
2018-03-26T06:03:47.728Z,99.99
2018-03-26T06:04:47.669Z,99.99
2018-03-26T06:05:47.741Z,99.99
2018-03-26T06:06:47.611Z,99.99
2018-03-26T06:07:47.580Z,99.99
2018-03-26T06:08:47.568Z,99.99
2018-03-26T06:09:47.548Z,99.99
2018-03-26T06:10:47.601Z,99.99
2018-03-26T06:11:47.473Z,99.99
2018-03-26T06:12:47.436Z,99.99
2018-03-26T06:13:47.406Z,99.99
2018-03-26T06:14:47.402Z,99.99
2018-03-26T06:15:47.379Z,99.99
2018-03-26T06:16:47.438Z,99.99
2018-03-26T06:17:47.350Z,99.99
2018-03-26T06:18:47.277Z,99.99
2018-03-26T06:19:47.246Z,99.99
2018-03-26T06:20:47.218Z,99.99
2018-03-26T06:21:47.270Z,99.99
2018-03-26T06:22:47.276Z,99.99
2018-03-26T06:23:47.161Z,99.99
2018-03-26T06:24:47.115Z,99.99
2018-03-26T06:25:47.092Z,99.99
2018-03-26T06:26:47.066Z,99.99
2018-03-26T06:27:47.136Z,99.99
2018-03-26T06:28:47.017Z,99.99
2018-03-26T06:29:46.970Z,99.99
2018-03-26T06:30:46.966Z,99.99
2018-03-26T06:31:46.911Z,99.99
2018-03-26T06:32:47.014Z,99.99
2018-03-26T06:33:46.863Z,99.99
2018-03-26T06:34:46.848Z,99.99
2018-03-26T06:35:46.840Z,99.99
2018-03-26T06:36:46.789Z,99.99
2018-03-26T06:37:46.866Z,99.99
2018-03-26T06:38:46.723Z,99.99
2018-03-26T06:39:46.710Z,99.99
2018-03-26T06:40:46.680Z,99.99
2018-03-26T06:41:46.666Z,99.99
2018-03-26T06:42:46.717Z,99.99
2018-03-26T06:43:46.601Z,99.99
2018-03-26T06:44:46.555Z,99.99
2018-03-26T06:45:46.542Z,99.99
2018-03-26T06:46:46.506Z,99.99
2018-03-26T06:47:46.574Z,99.99
2018-03-26T06:48:46.501Z,99.99
2018-03-26T06:49:46.454Z,99.99
2018-03-26T06:50:46.474Z,99.99
2018-03-26T06:51:46.398Z,99.99
2018-03-26T06:52:46.352Z,99.99
2018-03-26T06:53:46.407Z,99.99
2018-03-26T06:54:46.293Z,99.99
2018-03-26T06:55:46.256Z,99.99
2018-03-26T06:56:46.296Z,99.99
2018-03-26T06:57:46.232Z,99.99
2018-03-26T06:58:46.218Z,99.99
2018-03-26T06:59:46.256Z,99.99
2018-03-26T07:00:46.123Z,99.99
2018-03-26T07:01:46.090Z,99.99
2018-03-26T07:02:46.075Z,99.99
2018-03-26T07:03:46.061Z,99.99
2018-03-26T07:04:46.127Z,99.99
2018-03-26T07:05:45.991Z,99.99
2018-03-26T07:06:45.979Z,99.99
2018-03-26T07:07:46.004Z,99.99
2018-03-26T07:08:45.933Z,99.99
2018-03-26T07:09:45.998Z,99.02
2018-03-26T07:10:45.877Z,98.93
2018-03-26T07:11:45.821Z,99.99
2018-03-26T07:12:45.805Z,99.99
2018-03-26T07:13:45.780Z,99.99
2018-03-26T07:14:45.869Z,99.99
2018-03-26T07:15:45.726Z,99.99
2018-03-26T07:16:45.724Z,99.99
2018-03-26T07:17:45.708Z,99.99
2018-03-26T07:18:45.623Z,99.99
2018-03-26T07:19:45.707Z,99.99
2018-03-26T07:20:45.595Z,99.99
2018-03-26T07:21:45.565Z,99.99
2018-03-26T07:22:45.514Z,99.99
2018-03-26T07:23:45.489Z,99.99
2018-03-26T07:24:45.454Z,99.99
2018-03-26T07:25:45.540Z,99.99
2018-03-26T07:26:45.462Z,99.99
2018-03-26T07:27:45.400Z,99.99
2018-03-26T07:28:45.361Z,99.99
2018-03-26T07:29:45.316Z,99.99
2018-03-26T07:30:45.356Z,99.99
2018-03-26T07:31:45.392Z,99.99
2018-03-26T07:32:45.252Z,99.99
2018-03-26T07:33:45.217Z,99.99
2018-03-26T07:34:45.193Z,99.99
2018-03-26T07:35:45.213Z,99.99
2018-03-26T07:36:45.244Z,99.99
2018-03-26T07:37:45.111Z,99.99
2018-03-26T07:38:45.094Z,99.99
2018-03-26T07:39:45.047Z,99.99
2018-03-26T07:40:45.054Z,99.99
2018-03-26T07:41:45.104Z,99.99
2018-03-26T07:42:44.974Z,99.99
2018-03-26T07:43:44.929Z,99.65
2018-03-26T07:44:44.910Z,99.84
2018-03-26T07:45:44.898Z,99.99
2018-03-26T07:46:44.965Z,99.94
2018-03-26T07:47:44.847Z,98.97
2018-03-26T07:48:44.822Z,98.58
2018-03-26T07:49:44.780Z,97.91
2018-03-26T07:50:44.759Z,98.97
2018-03-26T07:51:44.826Z,99.65
2018-03-26T07:52:44.697Z,99.99
2018-03-26T07:53:44.662Z,99.99
2018-03-26T07:54:44.646Z,99.99
2018-03-26T07:55:44.612Z,99.94
2018-03-26T07:56:44.671Z,99.99
2018-03-26T07:57:44.553Z,99.99
2018-03-26T07:58:44.522Z,99.55
2018-03-26T07:59:44.509Z,98.88
2018-03-26T08:00:45.121Z,98.39
2018-03-26T08:01:44.448Z,97.91
2018-03-26T08:02:44.530Z,98.49
2018-03-26T08:03:44.390Z,99.07
2018-03-26T08:04:44.356Z,99.55
2018-03-26T08:05:44.358Z,99.07
2018-03-26T08:06:44.311Z,99.07
2018-03-26T08:07:44.285Z,99.99
2018-03-26T08:08:44.360Z,99.99
2018-03-26T08:09:44.243Z,99.99
2018-03-26T08:10:44.203Z,99.99
2018-03-26T08:11:44.172Z,99.99
2018-03-26T08:12:44.152Z,99.99
2018-03-26T08:13:44.222Z,99.99
2018-03-26T08:14:44.076Z,99.99
2018-03-26T08:15:44.081Z,99.99
2018-03-26T08:16:44.029Z,99.99
2018-03-26T08:17:43.997Z,99.99
2018-03-26T08:18:44.091Z,99.99
2018-03-26T08:19:43.963Z,99.99
2018-03-26T08:20:43.942Z,99.99
2018-03-26T08:21:43.887Z,99.99
2018-03-26T08:22:43.863Z,99.99
2018-03-26T08:23:43.947Z,99.99
2018-03-26T08:24:43.800Z,99.98
2018-03-26T08:25:43.779Z,99.99
2018-03-26T08:26:43.773Z,99.99
2018-03-26T08:27:43.711Z,99.99
2018-03-26T08:28:43.814Z,99.99
2018-03-26T08:29:43.662Z,99.99
2018-03-26T08:30:43.646Z,99.99
2018-03-26T08:31:43.601Z,99.99
2018-03-26T08:32:43.605Z,99.99
2018-03-26T08:33:43.625Z,99.99
2018-03-26T08:34:43.632Z,99.99
2018-03-26T08:35:43.510Z,99.99
2018-03-26T08:36:43.479Z,99.99
2018-03-26T08:37:43.433Z,99.99
2018-03-26T08:38:43.422Z,99.99
2018-03-26T08:39:43.386Z,99.99
2018-03-26T08:40:43.463Z,99.99
2018-03-26T08:41:43.353Z,99.99
2018-03-26T08:42:43.313Z,99.99
2018-03-26T08:43:43.265Z,99.99
2018-03-26T08:44:43.260Z,99.99
2018-03-26T08:45:43.242Z,99.99
2018-03-26T08:46:43.305Z,99.99
2018-03-26T08:47:43.171Z,99.88
2018-03-26T08:48:43.144Z,99.99
2018-03-26T08:49:43.124Z,99.99
2018-03-26T08:50:43.077Z,99.99
2018-03-26T08:51:43.181Z,98.63
2018-03-26T08:52:43.048Z,99.99
2018-03-26T08:53:43.020Z,99.99
2018-03-26T08:54:42.982Z,99.69
2018-03-26T08:55:42.938Z,99.21
2018-03-26T08:56:43.025Z,99.40
2018-03-26T08:57:42.906Z,99.79
2018-03-26T08:58:42.878Z,97.67
2018-03-26T08:59:42.834Z,96.61
2018-03-26T09:00:42.806Z,96.31
2018-03-26T09:01:42.871Z,96.61
2018-03-26T09:02:42.756Z,96.51
2018-03-26T09:03:42.727Z,96.08
2018-03-26T09:04:42.690Z,95.30
2018-03-26T09:05:42.682Z,95.45
2018-03-26T09:06:42.631Z,94.43
2018-03-26T09:07:42.757Z,93.41
2018-03-26T09:08:42.586Z,93.76
2018-03-26T09:09:42.556Z,93.32
2018-03-26T09:10:42.538Z,93.41
2018-03-26T09:11:42.492Z,93.51
2018-03-26T09:12:42.579Z,93.80
2018-03-26T09:13:42.450Z,93.47
2018-03-26T09:14:42.401Z,92.93
2018-03-26T09:15:42.388Z,93.47
2018-03-26T09:16:42.370Z,94.19
2018-03-26T09:17:42.349Z,94.19
2018-03-26T09:18:42.437Z,94.53
2018-03-26T09:19:42.297Z,94.14
2018-03-26T09:20:42.255Z,94.82
2018-03-26T09:21:42.215Z,95.40
2018-03-26T09:22:42.200Z,95.30
2018-03-26T09:23:42.280Z,94.92
2018-03-26T09:24:42.136Z,95.59
2018-03-26T09:25:42.106Z,94.62
2018-03-26T09:26:42.075Z,94.92
2018-03-26T09:27:42.087Z,94.72
2018-03-26T09:28:42.126Z,94.96
2018-03-26T09:29:41.989Z,94.87
2018-03-26T09:30:41.973Z,94.62
2018-03-26T09:31:41.937Z,94.04
2018-03-26T09:32:41.909Z,94.72
2018-03-26T09:33:42.051Z,94.34
2018-03-26T09:34:41.873Z,93.66
2018-03-26T09:35:41.834Z,94.10
2018-03-26T09:36:41.798Z,94.10
2018-03-26T09:37:41.800Z,94.92
2018-03-26T09:38:41.805Z,97.81
2018-03-26T09:39:41.835Z,95.98
2018-03-26T09:40:41.732Z,98.83
2018-03-26T09:41:41.661Z,99.60
2018-03-26T09:42:41.670Z,99.60
2018-03-26T09:43:41.616Z,99.99
2018-03-26T09:44:41.636Z,99.99
2018-03-26T09:45:41.656Z,99.99
2018-03-26T09:46:41.521Z,99.99
2018-03-26T09:47:41.531Z,99.99
2018-03-26T09:48:41.487Z,99.99
2018-03-26T09:49:41.441Z,99.99
2018-03-26T09:50:41.418Z,99.74
2018-03-26T09:51:41.499Z,99.99
2018-03-26T09:52:41.367Z,99.99
2018-03-26T09:53:41.321Z,99.99
2018-03-26T09:54:41.308Z,99.99
2018-03-26T09:55:41.296Z,99.99
2018-03-26T09:56:41.249Z,99.99
2018-03-26T09:57:41.326Z,99.69
2018-03-26T09:58:41.207Z,99.99
2018-03-26T09:59:41.187Z,99.50
2018-03-26T10:00:41.181Z,99.11
2018-03-26T10:01:41.112Z,98.92
2018-03-26T10:02:41.302Z,99.50
2018-03-26T10:03:41.035Z,99.99
2018-03-26T10:04:41.029Z,99.99
2018-03-26T10:05:41.004Z,99.99
2018-03-26T10:06:40.981Z,99.99
2018-03-26T10:07:41.061Z,99.99
2018-03-26T10:08:40.897Z,99.99
2018-03-26T10:09:40.876Z,99.99
2018-03-26T10:10:40.855Z,99.99
2018-03-26T10:11:40.817Z,99.99
2018-03-26T10:12:40.904Z,99.99
2018-03-26T10:13:40.875Z,99.99
2018-03-26T10:14:40.782Z,99.99
2018-03-26T10:15:40.702Z,99.99
2018-03-26T10:16:40.700Z,99.99
2018-03-26T10:17:40.711Z,99.65
2018-03-26T10:18:40.719Z,99.99
2018-03-26T10:19:40.655Z,99.65
2018-03-26T10:20:40.559Z,99.74
2018-03-26T10:21:40.550Z,99.74
2018-03-26T10:22:40.524Z,99.99
2018-03-26T10:23:40.588Z,99.99
2018-03-26T10:24:40.469Z,99.07
2018-03-26T10:25:40.446Z,98.29
2018-03-26T10:26:40.407Z,99.16
2018-03-26T10:27:40.394Z,99.07
2018-03-26T10:28:40.364Z,99.16
2018-03-26T10:29:40.428Z,99.26
2018-03-26T10:30:40.290Z,99.16
2018-03-26T10:31:40.271Z,98.78
2018-03-26T10:32:40.272Z,98.87
2018-03-26T10:33:40.213Z,99.45
2018-03-26T10:34:40.274Z,99.07
2018-03-26T10:35:40.142Z,99.07
2018-03-26T10:36:40.127Z,99.26
2018-03-26T10:37:40.110Z,98.87
2018-03-26T10:38:40.069Z,98.78
2018-03-26T10:39:40.139Z,98.58
2018-03-26T10:40:40.027Z,98.29
2018-03-26T10:41:40.016Z,98.78
2018-03-26T10:42:39.954Z,97.62
2018-03-26T10:43:39.957Z,97.14
2018-03-26T10:44:39.887Z,98.58
2018-03-26T10:45:39.989Z,96.36
2018-03-26T10:46:39.835Z,96.75
2018-03-26T10:47:39.816Z,95.50
2018-03-26T10:48:39.776Z,95.74
2018-03-26T10:49:39.747Z,95.35
2018-03-26T10:50:39.783Z,95.45
2018-03-26T10:51:39.806Z,94.20
2018-03-26T10:52:39.681Z,93.62
2018-03-26T10:53:39.637Z,92.84
2018-03-26T10:54:39.623Z,92.41
2018-03-26T10:55:39.594Z,91.05
2018-03-26T10:56:39.669Z,92.60
2018-03-26T10:57:39.528Z,89.99
2018-03-26T10:58:39.500Z,90.19
2018-03-26T10:59:39.490Z,92.11
2018-03-26T11:00:39.519Z,90.19
2018-03-26T11:01:39.435Z,90.77
2018-03-26T11:02:39.495Z,92.69
2018-03-26T11:03:39.369Z,90.09
2018-03-26T11:04:39.329Z,90.95
2018-03-26T11:05:39.351Z,90.19
2018-03-26T11:06:39.286Z,90.77
2018-03-26T11:07:39.263Z,90.86
2018-03-26T11:08:39.336Z,89.99
2018-03-26T11:09:39.192Z,90.28
2018-03-26T11:10:39.162Z,91.05
2018-03-26T11:11:39.177Z,90.67
2018-03-26T11:12:39.103Z,91.05
2018-03-26T11:13:39.197Z,92.02
2018-03-26T11:14:39.057Z,90.81
2018-03-26T11:15:39.024Z,90.86
2018-03-26T11:16:39.035Z,90.57
2018-03-26T11:17:39.005Z,91.30
2018-03-26T11:18:39.039Z,90.91
2018-03-26T11:19:39.056Z,94.43
2018-03-26T11:20:38.913Z,92.55
2018-03-26T11:21:38.879Z,92.65
2018-03-26T11:22:38.866Z,92.84
2018-03-26T11:23:38.827Z,92.65
2018-03-26T11:24:38.874Z,91.68
2018-03-26T11:25:38.753Z,93.42
2018-03-26T11:26:38.714Z,94.38
2018-03-26T11:27:38.710Z,92.55
2018-03-26T11:28:38.672Z,92.74
2018-03-26T11:29:38.726Z,92.65
2018-03-26T11:30:38.622Z,92.36
2018-03-26T11:31:38.586Z,92.36
2018-03-26T11:32:38.556Z,91.49
2018-03-26T11:33:38.551Z,91.35
2018-03-26T11:34:38.587Z,91.63
2018-03-26T11:35:38.457Z,91.20
2018-03-26T11:36:38.461Z,91.15
2018-03-26T11:37:38.434Z,91.92
2018-03-26T11:38:38.413Z,92.26
2018-03-26T11:39:38.375Z,92.16
2018-03-26T11:40:38.418Z,92.65
2018-03-26T11:41:38.299Z,91.68
2018-03-26T11:42:38.293Z,92.36
2018-03-26T11:43:38.301Z,93.62
2018-03-26T11:44:38.262Z,92.84
2018-03-26T11:45:38.323Z,92.84
2018-03-26T11:46:38.175Z,92.84
2018-03-26T11:47:38.157Z,92.36
2018-03-26T11:48:38.106Z,92.94
2018-03-26T11:49:38.169Z,93.80
2018-03-26T11:50:38.090Z,90.81
2018-03-26T11:51:38.120Z,90.67
2018-03-26T11:52:38.002Z,90.09
2018-03-26T11:53:37.962Z,88.06
2018-03-26T11:54:37.956Z,88.73
2018-03-26T11:55:37.932Z,89.26
2018-03-26T11:56:37.922Z,87.91
2018-03-26T11:57:37.959Z,88.29
2018-03-26T11:58:37.839Z,88.10
2018-03-26T11:59:37.793Z,86.65
2018-03-26T12:00:37.808Z,87.04
2018-03-26T12:01:37.825Z,87.04
2018-03-26T12:02:37.839Z,88.43
2018-03-26T12:03:37.683Z,86.99
2018-03-26T12:04:37.677Z,85.29
2018-03-26T12:05:37.625Z,85.58
2018-03-26T12:06:37.612Z,85.87
2018-03-26T12:07:37.758Z,82.72
2018-03-26T12:08:37.551Z,81.46
2018-03-26T12:09:37.536Z,80.82
2018-03-26T12:10:37.493Z,80.67
2018-03-26T12:11:37.516Z,79.60
2018-03-26T12:12:37.426Z,79.41
2018-03-26T12:13:37.506Z,79.70
2018-03-26T12:14:37.401Z,78.44
2018-03-26T12:15:37.346Z,79.60
2018-03-26T12:16:37.345Z,78.33
2018-03-26T12:17:37.288Z,77.29
2018-03-26T12:18:37.265Z,75.01
2018-03-26T12:19:37.361Z,74.97
2018-03-26T12:20:37.262Z,75.65
2018-03-26T12:21:37.199Z,75.42
2018-03-26T12:22:37.234Z,76.39
2018-03-26T12:23:38.751Z,77.32
2018-03-26T12:24:40.220Z,77.03
2018-03-26T12:25:38.815Z,77.03
2018-03-26T12:26:38.778Z,78.09
2018-03-26T12:27:38.549Z,79.25
2018-03-26T12:28:37.001Z,76.93
2018-03-26T12:29:37.011Z,78.03
2018-03-26T12:30:37.048Z,75.45
2018-03-26T12:31:36.936Z,73.20
2018-03-26T12:32:36.909Z,70.10
2018-03-26T12:33:36.981Z,69.74
2018-03-26T12:34:36.855Z,67.35
2018-03-26T12:35:37.033Z,66.89
2018-03-26T12:36:36.788Z,65.72
2018-03-26T12:37:36.809Z,64.97
2018-03-26T12:38:36.772Z,64.87
2018-03-26T12:39:36.711Z,64.03
2018-03-26T12:40:36.809Z,63.67
2018-03-26T12:41:36.644Z,62.41
2018-03-26T12:42:36.629Z,62.18
2018-03-26T12:43:36.637Z,62.12
2018-03-26T12:44:36.586Z,62.02
2018-03-26T12:45:36.660Z,61.72
2018-03-26T12:46:36.529Z,61.63
2018-03-26T12:47:36.518Z,60.36
2018-03-26T12:48:36.529Z,61.33
2018-03-26T12:49:36.499Z,61.21
2018-03-26T12:50:36.443Z,62.47
2018-03-26T12:51:36.679Z,62.25
2018-03-26T12:52:36.399Z,64.65
2018-03-26T12:53:36.379Z,66.96